createdAt,value
2023-01-20T00:00:31.395Z,97512.88
2023-01-20T00:03:55.662Z,97514.05
2023-01-20T00:06:58.882Z,97517.48
2023-01-20T00:10:02.468Z,97518.73
2023-01-20T00:13:05.692Z,97511.61
2023-01-20T00:16:10.989Z,97508.56
2023-01-20T00:19:15.057Z,97501.67
2023-01-20T00:22:18.301Z,97498.63
2023-01-20T00:25:21.497Z,97498.14
2023-01-20T00:28:24.753Z,97503.84
2023-01-20T00:31:30.479Z,97508.58
2023-01-20T00:34:33.717Z,97508.48
2023-01-20T00:37:36.989Z,97509.06
2023-01-20T00:40:40.191Z,97516.88
2023-01-20T00:43:44.173Z,97523.00
2023-01-20T00:46:47.387Z,97521.65
2023-01-20T00:49:50.801Z,97515.98
2023-01-20T00:52:54.006Z,97514.66
2023-01-20T00:55:57.309Z,97521.06
2023-01-20T00:59:00.529Z,97523.63
2023-01-20T01:02:04.543Z,97527.77
2023-01-20T01:05:08.309Z,97528.53
2023-01-20T01:08:11.884Z,97526.98
2023-01-20T01:11:15.116Z,97527.36
2023-01-20T01:14:18.602Z,97533.52
2023-01-20T01:17:23.811Z,97534.94
2023-01-20T01:20:28.306Z,97536.05
2023-01-20T01:23:31.953Z,97543.53
2023-01-20T01:26:35.266Z,97550.92
2023-01-20T01:29:38.421Z,97557.19
2023-01-20T01:32:41.683Z,97563.65
2023-01-20T01:35:54.068Z,97566.44
2023-01-20T01:38:59.147Z,97562.52
2023-01-20T01:42:02.652Z,97564.59
2023-01-20T01:45:12.411Z,97574.38
2023-01-20T01:48:16.631Z,97588.09
2023-01-20T01:51:25.554Z,97596.92
2023-01-20T01:54:36.637Z,97601.64
2023-01-20T01:57:40.002Z,97598.74
2023-01-20T02:00:43.910Z,97595.45
2023-01-20T02:04:00.075Z,97592.94
2023-01-20T02:07:12.485Z,97584.80
2023-01-20T02:10:16.168Z,97576.05
2023-01-20T02:13:19.670Z,97572.23
2023-01-20T02:16:41.056Z,97575.04
2023-01-20T02:20:10.748Z,97579.70
2023-01-20T02:23:32.674Z,97593.73
2023-01-20T02:26:35.917Z,97605.77
2023-01-20T02:30:16.765Z,97601.52
2023-01-20T02:33:33.275Z,97592.16
2023-01-20T02:36:51.618Z,97592.54
2023-01-20T02:40:23.101Z,97588.61
2023-01-20T02:43:56.687Z,97589.14
2023-01-20T02:47:14.322Z,97593.11
2023-01-20T02:50:21.650Z,97603.40
2023-01-20T02:53:28.671Z,97610.05
2023-01-20T02:56:34.357Z,97616.03
2023-01-20T02:59:42.422Z,97616.91
2023-01-20T03:02:48.455Z,97607.06
2023-01-20T03:06:00.327Z,97603.83
2023-01-20T03:09:09.080Z,97606.57
2023-01-20T03:12:22.457Z,97601.40
2023-01-20T03:15:35.488Z,97599.64
2023-01-20T03:18:40.275Z,97609.55
2023-01-20T03:21:44.139Z,97612.73
2023-01-20T03:24:48.571Z,97604.84
2023-01-20T03:27:51.778Z,97595.14
2023-01-20T03:30:56.929Z,97583.73
2023-01-20T03:34:03.919Z,97579.89
2023-01-20T03:37:08.378Z,97581.82
2023-01-20T03:40:13.059Z,97587.58
2023-01-20T03:43:27.187Z,97586.98
2023-01-20T03:46:48.103Z,97598.79
2023-01-20T03:50:16.724Z,97622.59
2023-01-20T03:53:37.551Z,97643.54
2023-01-20T03:57:04.114Z,97641.66
2023-01-20T04:00:12.032Z,97636.30
2023-01-20T04:03:20.252Z,97633.88
2023-01-20T04:06:27.178Z,97648.45
2023-01-20T04:09:34.204Z,97650.29
2023-01-20T04:12:37.504Z,97653.11
2023-01-20T04:15:44.534Z,97652.81
2023-01-20T04:18:50.509Z,97653.35
2023-01-20T04:22:01.197Z,97656.45
2023-01-20T04:25:30.736Z,97664.44
2023-01-20T04:28:33.984Z,97662.70
2023-01-20T04:31:37.755Z,97666.81
2023-01-20T04:34:41.031Z,97676.55
2023-01-20T04:37:44.658Z,97674.90
2023-01-20T04:40:47.869Z,97682.38
2023-01-20T04:43:51.136Z,97680.88
2023-01-20T04:46:58.494Z,97684.36
2023-01-20T04:50:01.759Z,97687.71
2023-01-20T04:53:05.087Z,97688.76
2023-01-20T04:56:15.736Z,97689.85
2023-01-20T04:59:19.222Z,97684.64
2023-01-20T05:02:22.505Z,97676.15
2023-01-20T05:05:25.897Z,97675.80
2023-01-20T05:08:29.259Z,97680.80
2023-01-20T05:11:32.529Z,97680.03
2023-01-20T05:14:35.692Z,97684.96
2023-01-20T05:17:39.125Z,97694.36
2023-01-20T05:20:45.777Z,97702.23
2023-01-20T05:23:48.997Z,97708.24
2023-01-20T05:26:52.176Z,97711.66
2023-01-20T05:29:55.360Z,97717.59
2023-01-20T05:32:58.613Z,97721.40
2023-01-20T05:36:05.750Z,97721.46
2023-01-20T05:39:09.036Z,97729.59
2023-01-20T05:42:12.262Z,97732.92
2023-01-20T05:45:15.790Z,97735.56
2023-01-20T05:48:19.358Z,97736.79
2023-01-20T05:51:22.701Z,97736.85
2023-01-20T05:54:26.414Z,97730.65
2023-01-20T05:57:29.649Z,97728.86
2023-01-20T06:00:33.163Z,97729.59
2023-01-20T06:03:37.189Z,97734.83
2023-01-20T06:06:40.428Z,97740.67
2023-01-20T06:09:43.657Z,97743.77
2023-01-20T06:12:53.274Z,97742.58
2023-01-20T06:15:57.189Z,97747.61
2023-01-20T06:19:00.439Z,97749.91
2023-01-20T06:22:03.807Z,97750.80
2023-01-20T06:25:07.339Z,97758.81
2023-01-20T06:28:11.268Z,97763.42
2023-01-20T06:31:16.887Z,97769.05
2023-01-20T06:34:20.205Z,97777.37
2023-01-20T06:37:23.470Z,97779.46
2023-01-20T06:40:26.790Z,97780.46
2023-01-20T06:43:30.871Z,97782.85
2023-01-20T06:46:34.080Z,97779.58
2023-01-20T06:49:37.290Z,97785.27
2023-01-20T06:52:40.502Z,97796.84
2023-01-20T06:55:43.680Z,97806.52
2023-01-20T06:58:46.971Z,97803.97
2023-01-20T07:01:50.399Z,97804.53
2023-01-20T07:04:53.916Z,97799.82
2023-01-20T07:07:57.103Z,97800.83
2023-01-20T07:11:00.366Z,97805.46
2023-01-20T07:14:05.421Z,97813.27
2023-01-20T07:17:12.423Z,97819.05
2023-01-20T07:20:15.854Z,97829.17
2023-01-20T07:23:19.054Z,97833.79
2023-01-20T07:26:26.402Z,97830.52
2023-01-20T07:29:29.610Z,97831.10
2023-01-20T07:32:32.850Z,97828.14
2023-01-20T07:35:36.055Z,97830.80
2023-01-20T07:38:39.718Z,97831.04
2023-01-20T07:41:43.907Z,97830.27
2023-01-20T07:44:47.249Z,97835.98
2023-01-20T07:47:50.465Z,97838.45
2023-01-20T07:51:05.882Z,97838.53
2023-01-20T07:54:12.054Z,97853.16
2023-01-20T07:57:15.426Z,97854.66
2023-01-20T08:00:19.557Z,97855.36
2023-01-20T08:03:25.958Z,97860.63
2023-01-20T08:06:31.067Z,97858.67
2023-01-20T08:09:34.437Z,97859.61
2023-01-20T08:12:37.723Z,97870.99
2023-01-20T08:15:40.948Z,97874.20
2023-01-20T08:18:46.734Z,97874.33
2023-01-20T08:21:50.109Z,97867.77
2023-01-20T08:24:54.533Z,97871.85
2023-01-20T08:27:57.892Z,97880.66
2023-01-20T08:31:13.075Z,97881.15
2023-01-20T08:34:18.731Z,97875.10
2023-01-20T08:37:22.095Z,97878.23
2023-01-20T08:40:25.365Z,97878.52
2023-01-20T08:43:29.141Z,97875.98
2023-01-20T08:46:32.978Z,97876.71
2023-01-20T08:49:36.271Z,97881.90
2023-01-20T08:52:40.188Z,97891.71
2023-01-20T08:55:43.472Z,97893.99
2023-01-20T08:58:47.024Z,97900.73
2023-01-20T09:01:50.348Z,97906.28
2023-01-20T09:04:54.578Z,97911.69
2023-01-20T09:07:57.803Z,97911.21
2023-01-20T09:11:13.560Z,97918.44
2023-01-20T09:14:18.425Z,97917.39
2023-01-20T09:17:21.679Z,97918.48
2023-01-20T09:20:27.176Z,97912.44
2023-01-20T09:23:30.341Z,97911.86
2023-01-20T09:26:38.586Z,97911.64
2023-01-20T09:29:41.880Z,97918.49
2023-01-20T09:32:46.104Z,97914.56
2023-01-20T09:35:55.413Z,97910.57
2023-01-20T09:39:18.893Z,97917.86
2023-01-20T09:42:49.692Z,97912.48
2023-01-20T09:46:00.939Z,97910.02
2023-01-20T09:49:46.832Z,97908.98
2023-01-20T09:53:03.847Z,97907.66
2023-01-20T09:56:37.970Z,97907.61
2023-01-20T09:59:49.156Z,97903.98
2023-01-20T10:02:59.676Z,97905.65
2023-01-20T10:06:11.471Z,97906.26
2023-01-20T10:09:17.976Z,97903.09
2023-01-20T10:12:48.063Z,97892.91
2023-01-20T10:15:55.296Z,97896.05
2023-01-20T10:19:27.335Z,97892.65
2023-01-20T10:22:53.654Z,97889.39
2023-01-20T10:26:09.683Z,97893.62
2023-01-20T10:29:52.015Z,97898.98
2023-01-20T10:33:05.541Z,97898.48
2023-01-20T10:36:16.740Z,97899.55
2023-01-20T10:39:29.945Z,97891.82
2023-01-20T10:42:33.826Z,97891.51
2023-01-20T10:45:50.554Z,97897.23
2023-01-20T10:49:18.808Z,97896.27
2023-01-20T10:52:30.728Z,97892.20
2023-01-20T10:55:48.792Z,97898.56
2023-01-20T10:58:52.214Z,97898.08
2023-01-20T11:02:11.600Z,97896.64
2023-01-20T11:05:19.982Z,97891.58
2023-01-20T11:08:28.123Z,97890.34
2023-01-20T11:11:33.512Z,97896.24
2023-01-20T11:14:37.071Z,97905.16
2023-01-20T11:17:40.430Z,97906.32
2023-01-20T11:20:53.745Z,97903.27
2023-01-20T11:23:58.434Z,97904.37
2023-01-20T11:27:10.430Z,97898.97
2023-01-20T11:30:22.927Z,97899.42
2023-01-20T11:33:26.881Z,97892.29
2023-01-20T11:36:30.369Z,97885.44
2023-01-20T11:39:37.135Z,97879.00
2023-01-20T11:42:46.290Z,97866.30
2023-01-20T11:46:13.412Z,97860.23
2023-01-20T11:49:22.630Z,97852.69
2023-01-20T11:52:25.914Z,97852.04
2023-01-20T11:55:30.778Z,97852.36
2023-01-20T11:58:57.838Z,97849.48
2023-01-20T12:02:23.406Z,97842.02
2023-01-20T12:05:50.131Z,97841.54
2023-01-20T12:09:15.771Z,97848.19
2023-01-20T12:12:37.824Z,97847.48
2023-01-20T12:15:45.620Z,97843.67
2023-01-20T12:19:02.108Z,97848.22
2023-01-20T12:22:13.608Z,97841.11
2023-01-20T12:25:22.664Z,97838.90
2023-01-20T12:28:42.527Z,97832.92
2023-01-20T12:31:49.726Z,97836.88
2023-01-20T12:34:55.539Z,97837.28
2023-01-20T12:38:07.940Z,97840.60
2023-01-20T12:41:16.353Z,97834.33
2023-01-20T12:44:33.628Z,97844.52
2023-01-20T12:48:05.337Z,97858.02
2023-01-20T12:51:15.046Z,97866.48
2023-01-20T12:54:55.039Z,97869.41
2023-01-20T12:58:43.386Z,97870.31
2023-01-20T13:01:57.027Z,97873.33
2023-01-20T13:05:37.954Z,97876.67
2023-01-20T13:09:04.022Z,97884.18
2023-01-20T13:12:27.292Z,97894.23
2023-01-20T13:15:46.137Z,97899.93
2023-01-20T13:19:19.435Z,97898.16
2023-01-20T13:22:24.762Z,97895.02
2023-01-20T13:25:28.786Z,97899.43
2023-01-20T13:28:32.456Z,97904.66
2023-01-20T13:31:39.028Z,97911.45
2023-01-20T13:34:45.080Z,97913.98
2023-01-20T13:38:00.562Z,97918.56
2023-01-20T13:41:10.164Z,97918.04
2023-01-20T13:44:41.473Z,97923.41
2023-01-20T13:47:48.274Z,97925.42
2023-01-20T13:50:54.079Z,97917.59
2023-01-20T13:54:38.022Z,97914.30
2023-01-20T13:57:43.704Z,97914.55
2023-01-20T14:00:50.001Z,97921.17
2023-01-20T14:04:05.729Z,97926.27
2023-01-20T14:07:31.036Z,97933.50
2023-01-20T14:10:35.073Z,97938.91
2023-01-20T14:13:41.654Z,97944.62
2023-01-20T14:16:44.975Z,97954.62
2023-01-20T14:19:57.779Z,97956.52
2023-01-20T14:23:31.164Z,97948.83
2023-01-20T14:26:34.593Z,97956.16
2023-01-20T14:29:37.922Z,97960.87
2023-01-20T14:32:46.863Z,97961.21
2023-01-20T14:35:50.368Z,97965.11
2023-01-20T14:38:58.429Z,97960.90
2023-01-20T14:42:01.986Z,97959.22
2023-01-20T14:45:23.607Z,97964.73
2023-01-20T14:48:34.372Z,97961.85
2023-01-20T14:51:38.280Z,97961.79
2023-01-20T14:54:48.664Z,97963.84
2023-01-20T14:57:52.211Z,97958.77
2023-01-20T15:01:01.875Z,97962.20
2023-01-20T15:04:07.871Z,97959.79
2023-01-20T15:07:19.428Z,97962.86
2023-01-20T15:10:22.796Z,97968.27
2023-01-20T15:13:29.937Z,97968.95
2023-01-20T15:16:36.048Z,97971.06
2023-01-20T15:19:46.722Z,97970.15
2023-01-20T15:22:51.217Z,97970.93
2023-01-20T15:25:54.527Z,97979.23
2023-01-20T15:28:58.931Z,97983.22
2023-01-20T15:32:09.748Z,97984.45
2023-01-20T15:35:15.230Z,97986.26
2023-01-20T15:38:18.553Z,97990.55
2023-01-20T15:41:22.475Z,97984.20
2023-01-20T15:44:26.890Z,97980.87
2023-01-20T15:47:31.102Z,97980.42
2023-01-20T15:50:34.646Z,97981.30
2023-01-20T15:53:37.985Z,97976.30
2023-01-20T15:56:43.580Z,97979.41
2023-01-20T15:59:49.993Z,97979.25
2023-01-20T16:02:53.441Z,97978.64
2023-01-20T16:05:56.978Z,97977.27
2023-01-20T16:09:03.525Z,97984.20
2023-01-20T16:12:14.612Z,97981.59
2023-01-20T16:15:18.401Z,97988.27
2023-01-20T16:18:22.099Z,97992.39
2023-01-20T16:21:25.396Z,97984.36
2023-01-20T16:24:28.765Z,97984.57
2023-01-20T16:27:31.970Z,97990.91
2023-01-20T16:30:35.160Z,97998.87
2023-01-20T16:33:38.381Z,98004.13
2023-01-20T16:36:41.693Z,98007.29
2023-01-20T16:39:44.965Z,98008.82
2023-01-20T16:42:48.461Z,98009.55
2023-01-20T16:45:54.528Z,98012.05
2023-01-20T16:49:03.107Z,98013.17
2023-01-20T16:52:07.039Z,98017.09
2023-01-20T16:55:13.215Z,98019.36
2023-01-20T16:58:16.792Z,98018.85
2023-01-20T17:01:24.597Z,98024.23
2023-01-20T17:04:29.514Z,98021.19
2023-01-20T17:07:32.882Z,98018.56
2023-01-20T17:10:36.147Z,98020.64
2023-01-20T17:13:39.379Z,98026.11
2023-01-20T17:16:42.741Z,98025.21
2023-01-20T17:19:45.948Z,98029.96
2023-01-20T17:22:49.194Z,98026.13
2023-01-20T17:25:52.512Z,98027.30
2023-01-20T17:28:58.124Z,98030.17
2023-01-20T17:32:01.436Z,98038.27
2023-01-20T17:35:05.043Z,98036.95
2023-01-20T17:38:08.235Z,98040.50
2023-01-20T17:41:12.797Z,98039.08
2023-01-20T17:44:16.097Z,98035.63
2023-01-20T17:47:19.288Z,98034.18
2023-01-20T17:50:22.520Z,98032.88
2023-01-20T17:53:28.896Z,98034.99
2023-01-20T17:56:32.327Z,98031.54
2023-01-20T17:59:36.464Z,98033.39
2023-01-20T18:02:42.553Z,98027.50
2023-01-20T18:05:46.127Z,98025.40
2023-01-20T18:08:54.951Z,98026.02
2023-01-20T18:11:58.179Z,98020.91
2023-01-20T18:15:01.499Z,98024.02
2023-01-20T18:18:04.763Z,98019.67
2023-01-20T18:21:16.330Z,98017.52
2023-01-20T18:24:19.709Z,98011.85
2023-01-20T18:27:22.938Z,98009.81
2023-01-20T18:30:26.111Z,98011.30
2023-01-20T18:33:29.416Z,98010.67
2023-01-20T18:36:35.267Z,98007.62
2023-01-20T18:39:38.932Z,98007.30
2023-01-20T18:42:45.151Z,98004.55
2023-01-20T18:45:48.490Z,98005.91
2023-01-20T18:48:53.460Z,98006.63
2023-01-20T18:51:59.193Z,97997.40
2023-01-20T18:55:02.511Z,97997.50
2023-01-20T18:58:05.856Z,97993.49
2023-01-20T19:01:13.327Z,97983.98
2023-01-20T19:04:16.992Z,97984.84
2023-01-20T19:07:21.051Z,97986.23
2023-01-20T19:10:24.291Z,97986.61
2023-01-20T19:13:27.920Z,97985.76
2023-01-20T19:16:33.959Z,97983.56
2023-01-20T19:19:37.281Z,97976.02
2023-01-20T19:22:41.238Z,97975.80
2023-01-20T19:25:44.728Z,97976.42
2023-01-20T19:28:54.876Z,97970.38
2023-01-20T19:31:58.241Z,97969.77
2023-01-20T19:35:01.556Z,97964.64
2023-01-20T19:38:04.758Z,97965.87
2023-01-20T19:41:16.558Z,97963.41
2023-01-20T19:44:20.169Z,97961.05
2023-01-20T19:47:23.593Z,97961.59
2023-01-20T19:50:26.791Z,97960.98
2023-01-20T19:53:30.289Z,97963.55
2023-01-20T19:56:35.454Z,97964.48
2023-01-20T19:59:40.902Z,97962.09
2023-01-20T20:02:44.996Z,97959.27
2023-01-20T20:05:48.293Z,97965.36
2023-01-20T20:08:52.933Z,97961.10
2023-01-20T20:11:57.778Z,97965.81
2023-01-20T20:15:00.969Z,97960.05
2023-01-20T20:18:04.259Z,97953.69
2023-01-20T20:21:08.422Z,97958.09
2023-01-20T20:24:13.141Z,97964.48
2023-01-20T20:27:16.392Z,97959.04
2023-01-20T20:30:19.593Z,97970.77
2023-01-20T20:33:24.323Z,97976.11
2023-01-20T20:36:29.685Z,97981.31
2023-01-20T20:39:32.947Z,97982.58
2023-01-20T20:42:36.359Z,97974.42
2023-01-20T20:45:39.656Z,97968.81
2023-01-20T20:49:00.622Z,97954.83
2023-01-20T20:52:03.998Z,97947.13
2023-01-20T20:55:07.535Z,97941.23
2023-01-20T20:58:11.078Z,97940.34
2023-01-20T21:01:16.491Z,97941.12
2023-01-20T21:04:19.744Z,97942.22
2023-01-20T21:07:23.103Z,97936.84
2023-01-20T21:10:26.726Z,97928.04
2023-01-20T21:13:30.151Z,97931.59
2023-01-20T21:16:34.481Z,97926.48
2023-01-20T21:19:37.710Z,97933.38
2023-01-20T21:22:40.935Z,97933.79
2023-01-20T21:25:44.185Z,97930.97
2023-01-20T21:28:50.711Z,97934.00
2023-01-20T21:31:54.253Z,97933.48
2023-01-20T21:35:02.036Z,97930.24
2023-01-20T21:38:05.644Z,97933.64
2023-01-20T21:41:10.412Z,97930.72
2023-01-20T21:44:29.892Z,97924.87
2023-01-20T21:47:33.417Z,97921.79
2023-01-20T21:50:55.278Z,97919.25
2023-01-20T21:53:58.437Z,97912.90
2023-01-20T21:57:02.367Z,97903.77
2023-01-20T22:00:08.748Z,97901.30
2023-01-20T22:03:17.702Z,97898.21
2023-01-20T22:06:20.940Z,97900.60
2023-01-20T22:09:24.127Z,97906.92
2023-01-20T22:12:27.410Z,97913.16
2023-01-20T22:15:31.482Z,97916.85
2023-01-20T22:18:34.894Z,97914.54
2023-01-20T22:21:38.208Z,97918.57
2023-01-20T22:24:41.735Z,97910.86
2023-01-20T22:27:48.118Z,97914.20
2023-01-20T22:30:51.493Z,97911.23
2023-01-20T22:33:57.037Z,97914.23
2023-01-20T22:37:00.764Z,97907.23
2023-01-20T22:40:05.577Z,97903.55
2023-01-20T22:43:08.828Z,97902.86
2023-01-20T22:46:15.801Z,97902.00
2023-01-20T22:49:19.124Z,97900.40
2023-01-20T22:52:23.306Z,97904.05
2023-01-20T22:55:26.493Z,97903.24
2023-01-20T22:58:30.214Z,97904.35
2023-01-20T23:01:35.573Z,97903.20
2023-01-20T23:04:38.758Z,97900.27
2023-01-20T23:07:41.973Z,97897.42
2023-01-20T23:10:48.513Z,97893.11
2023-01-20T23:13:52.514Z,97891.34
2023-01-20T23:16:55.746Z,97888.89
2023-01-20T23:19:59.660Z,97893.48
2023-01-20T23:23:03.003Z,97893.24
2023-01-20T23:26:17.253Z,97895.54
2023-01-20T23:29:20.494Z,97893.95
2023-01-20T23:32:23.993Z,97896.02
2023-01-20T23:35:27.216Z,97893.44
2023-01-20T23:38:30.435Z,97892.80
2023-01-20T23:41:33.642Z,97892.45
2023-01-20T23:44:36.882Z,97890.77
2023-01-20T23:47:40.128Z,97892.14
2023-01-20T23:50:43.494Z,97893.88
2023-01-20T23:53:46.926Z,97890.96
2023-01-20T23:56:50.161Z,97891.77
2023-01-20T23:59:53.361Z,97887.04
